Betsey, Kentucky
Current Conditions -  °F | °C
As of 1:56 AM on Monday 22 Dec 2014 (Local Time) from KEKQ Reporting Station
Overcast Overcast  
Wind Chill: 34°   Ceiling: 3900
Heat Index: 34°   Visibility: 10mi
Dew Point: 31°   Wind: 0mph
Humidity: 89%   Direction: NA
Pressure: 30.05"   Gusts: NA
Location:  36.8129°N, 84.8215°W
Report Text: KEKQ 220656Z AUTO 00000KT 10SM OVC039 01/M01 A3005 RMK AO2 T00111005 SLP182
Loading
Personal Weather Stations






























Interactive Weather Map New forecast layout! Learn more

10-Day Weather Forecast

Advertisements
Track Severe Weather on mobile